Government of Jersey

Home Log in

METAR EGJJ 150420Z AUTO 14007KT 9999 NCD 16/15 Q1008

METAR EGJB 150420Z 13006KT CAVOK 16/15 Q1008

METAR LFRD 150330Z AUTO 11004KT 080V140 CAVOK 14/11 Q1008

METAR LFRC 150330Z AUTO 13007KT CAVOK 15/15 Q1009

METAR LFRT 150330Z AUTO 13003KT 090V160 9999 FEW047 BKN086 BKN100 14/12 Q1008